Time;durP1;ratioP1;P1;durP2;ratioP2;P2;SDS_P1;SDS_P2;PMS_P1;PMS_P2;Temp;Humidity;BMP_temperature;BMP_pressure;BME280_temperature;BME280_humidity;BME280_pressure;Samples;Min_cycle;Max_cycle;Signal;HPM_P1;HPM_P2
2023/09/21 00:01:54;;;;;;;18.55;9.48;;;;;;;;;;5007430;28;20054;-59
2023/09/21 00:04:41;;;;;;;26.75;9.02;;;;;;;;;;5004143;28;20050;-60
2023/09/21 00:07:36;;;;;;;17.05;8.88;;;;;;;;;;5007183;28;20105;-59
2023/09/21 00:10:22;;;;;;;20.08;10.00;;;;;;;;;;5004797;28;20120;-59
2023/09/21 00:13:16;;;;;;;16.58;9.70;;;;;;;;;;5003677;28;20058;-59
2023/09/21 00:16:03;;;;;;;18.90;9.18;;;;;;;;;;5006720;28;20050;-59
2023/09/21 00:18:57;;;;;;;26.17;11.27;;;;;;;;;;5003886;28;20137;-59
2023/09/21 00:21:44;;;;;;;27.23;11.02;;;;;;;;;;4999628;28;20065;-63
2023/09/21 00:24:38;;;;;;;25.13;10.60;;;;;;;;;;5001028;28;20097;-63
2023/09/21 00:27:28;;;;;;;22.65;11.48;;;;;;;;;;5000379;28;20506;-64
2023/09/21 00:30:19;;;;;;;18.58;10.95;;;;;;;;;;5000958;28;20112;-63
2023/09/21 00:33:09;;;;;;;28.92;11.75;;;;;;;;;;5000738;28;20525;-64
2023/09/21 00:36:09;;;;;;;28.63;12.38;;;;;;;;;;5004972;28;20998;-60
2023/09/21 00:38:57;;;;;;;16.17;9.57;;;;;;;;;;5003206;28;20057;-61
2023/09/21 00:41:51;;;;;;;23.92;12.13;;;;;;;;;;5002733;28;20060;-61
2023/09/21 00:44:40;;;;;;;24.85;10.85;;;;;;;;;;5003037;28;20624;-62
2023/09/21 00:47:33;;;;;;;19.30;9.98;;;;;;;;;;4994762;28;20058;-61
2023/09/21 00:50:22;;;;;;;24.20;10.27;;;;;;;;;;5004868;28;20065;-61
2023/09/21 00:53:15;;;;;;;17.33;8.80;;;;;;;;;;5002427;28;20049;-61
2023/09/21 00:56:08;;;;;;;17.83;10.02;;;;;;;;;;5005465;28;20502;-60
2023/09/21 00:59:00;;;;;;;16.27;10.60;;;;;;;;;;4990357;28;20066;-60
2023/09/21 01:01:48;;;;;;;22.17;11.00;;;;;;;;;;5002206;28;20058;-61
2023/09/21 01:04:41;;;;;;;22.23;10.45;;;;;;;;;;4998394;28;20072;-63
2023/09/21 01:07:29;;;;;;;18.20;10.00;;;;;;;;;;5002077;28;20402;-60
2023/09/21 01:10:24;;;;;;;22.30;11.10;;;;;;;;;;4999680;28;20489;-61
2023/09/21 01:13:17;;;;;;;14.82;8.90;;;;;;;;;;5000492;28;20147;-64
2023/09/21 01:16:11;;;;;;;17.77;11.05;;;;;;;;;;5002539;28;21138;-48
2023/09/21 01:19:04;;;;;;;18.45;10.05;;;;;;;;;;4997389;28;20070;-52
2023/09/21 01:21:51;;;;;;;20.58;11.15;;;;;;;;;;5003836;28;20105;-47
2023/09/21 01:24:46;;;;;;;15.80;8.93;;;;;;;;;;5001380;28;20077;-52
2023/09/21 01:27:34;;;;;;;18.02;9.57;;;;;;;;;;4996133;28;20464;-51
2023/09/21 01:30:28;;;;;;;13.88;9.73;;;;;;;;;;4999406;28;20058;-61
2023/09/21 01:33:15;;;;;;;22.77;10.68;;;;;;;;;;5001725;28;20134;-59
2023/09/21 01:36:09;;;;;;;19.55;10.77;;;;;;;;;;4996474;28;20056;-60
2023/09/21 01:39:06;;;;;;;20.33;10.48;;;;;;;;;;5001609;28;20202;-60
2023/09/21 01:41:56;;;;;;;24.35;11.50;;;;;;;;;;4999484;28;20934;-60
2023/09/21 01:44:43;;;;;;;16.52;10.02;;;;;;;;;;5001313;28;20046;-60
2023/09/21 01:47:37;;;;;;;16.85;11.15;;;;;;;;;;4997863;28;20061;-60
2023/09/21 01:50:25;;;;;;;20.40;10.63;;;;;;;;;;4998841;28;20497;-55
2023/09/21 01:53:20;;;;;;;20.70;11.23;;;;;;;;;;5005583;28;20054;-58
2023/09/21 01:56:07;;;;;;;23.60;10.32;;;;;;;;;;5006021;28;20830;-58
2023/09/21 01:59:01;;;;;;;14.77;9.73;;;;;;;;;;5008655;28;20057;-58
2023/09/21 02:01:51;;;;;;;22.08;11.38;;;;;;;;;;5005953;28;20115;-58
2023/09/21 02:04:42;;;;;;;24.67;11.15;;;;;;;;;;5003498;28;20065;-61
2023/09/21 02:07:29;;;;;;;24.50;12.45;;;;;;;;;;4996762;28;20057;-51
2023/09/21 02:10:03;;;;;;;22.10;11.32;;;;;;;;;;4999100;28;20798;-52
2023/09/21 02:12:37;;;;;;;26.27;11.52;;;;;;;;;;5004331;28;20286;-52
2023/09/21 02:15:12;;;;;;;28.90;13.13;;;;;;;;;;5004132;28;20509;-54
2023/09/21 02:17:40;;;;;;;27.75;12.40;;;;;;;;;;5004855;28;20060;-49
2023/09/21 02:20:44;;;;;;;19.27;11.18;;;;;;;;;;5000619;28;20058;-46
2023/09/21 02:23:27;;;;;;;20.45;12.05;;;;;;;;;;4997668;28;20081;-49
2023/09/21 02:26:21;;;;;;;17.80;11.63;;;;;;;;;;4998711;28;20069;-51
2023/09/21 02:29:12;;;;;;;25.58;11.25;;;;;;;;;;4996637;28;20049;-46
2023/09/21 02:32:03;;;;;;;20.17;11.73;;;;;;;;;;4999785;28;20072;-49
2023/09/21 02:34:50;;;;;;;24.67;11.50;;;;;;;;;;4989552;28;20112;-49
2023/09/21 02:37:58;;;;;;;24.20;12.02;;;;;;;;;;4996654;28;20172;-60
2023/09/21 02:40:52;;;;;;;23.13;11.57;;;;;;;;;;4998653;28;20050;-60
2023/09/21 02:43:46;;;;;;;17.58;11.00;;;;;;;;;;4998718;28;20061;-60
2023/09/21 02:46:33;;;;;;;20.08;10.55;;;;;;;;;;4997700;28;20066;-60
2023/09/21 02:49:33;;;;;;;20.23;11.10;;;;;;;;;;4995742;28;20050;-60
2023/09/21 02:52:21;;;;;;;20.17;11.70;;;;;;;;;;4999282;28;20537;-60
2023/09/21 02:55:20;;;;;;;19.65;11.48;;;;;;;;;;4993144;28;20108;-58
2023/09/21 02:58:13;;;;;;;23.15;11.07;;;;;;;;;;4999615;28;20054;-58
2023/09/21 03:01:06;;;;;;;32.22;11.80;;;;;;;;;;5000646;28;20065;-58
2023/09/21 03:03:53;;;;;;;16.92;11.23;;;;;;;;;;5001874;28;20050;-58
2023/09/21 03:06:47;;;;;;;24.27;11.52;;;;;;;;;;5002290;28;20049;-58
2023/09/21 03:09:37;;;;;;;23.52;10.32;;;;;;;;;;4999287;28;20802;-58
2023/09/21 03:12:28;;;;;;;21.95;10.73;;;;;;;;;;5006204;28;20054;-65
2023/09/21 03:15:18;;;;;;;23.13;11.57;;;;;;;;;;4987782;28;20667;-52
2023/09/21 03:18:10;;;;;;;20.33;11.60;;;;;;;;;;4976768;28;20075;-51
2023/09/21 03:20:57;;;;;;;24.60;12.25;;;;;;;;;;4997577;28;20072;-54
2023/09/21 03:23:52;;;;;;;17.27;10.18;;;;;;;;;;4978204;28;20050;-51
2023/09/21 03:26:39;;;;;;;16.13;9.80;;;;;;;;;;4999197;28;20081;-53
2023/09/21 03:29:33;;;;;;;21.58;10.75;;;;;;;;;;4995649;28;20086;-54
2023/09/21 03:32:19;;;;;;;18.38;9.40;;;;;;;;;;5000083;28;20064;-53
2023/09/21 03:35:13;;;;;;;16.77;9.93;;;;;;;;;;5001318;28;21161;-63
2023/09/21 03:38:14;;;;;;;21.95;10.45;;;;;;;;;;5001483;28;20573;-64
2023/09/21 03:41:01;;;;;;;25.00;9.68;;;;;;;;;;5000878;28;20058;-64
2023/09/21 03:43:55;;;;;;;20.67;9.73;;;;;;;;;;5001892;28;20073;-63
2023/09/21 03:46:48;;;;;;;19.95;9.63;;;;;;;;;;4973030;28;20084;-64
2023/09/21 03:49:44;;;;;;;21.83;9.55;;;;;;;;;;4991736;28;20061;-61
2023/09/21 03:52:31;;;;;;;18.17;10.30;;;;;;;;;;5001675;28;20053;-58
2023/09/21 03:55:24;;;;;;;21.42;9.13;;;;;;;;;;4999472;28;20057;-58
2023/09/21 03:58:12;;;;;;;20.27;10.13;;;;;;;;;;4995814;28;20050;-58
2023/09/21 04:01:08;;;;;;;16.77;9.35;;;;;;;;;;4996900;28;20139;-58
2023/09/21 04:03:53;;;;;;;20.35;9.00;;;;;;;;;;4995004;28;20061;-58
2023/09/21 04:06:46;;;;;;;17.35;8.90;;;;;;;;;;4998042;28;20509;-58
2023/09/21 04:09:15;;;;;;;23.63;9.48;;;;;;;;;;4999433;28;20620;-61
2023/09/21 04:12:07;;;;;;;25.63;8.82;;;;;;;;;;5002872;28;20049;-59
2023/09/21 04:14:54;;;;;;;16.58;8.75;;;;;;;;;;5001051;28;20069;-58
2023/09/21 04:17:48;;;;;;;13.50;7.85;;;;;;;;;;4992320;28;20100;-58
2023/09/21 04:20:44;;;;;;;18.15;8.10;;;;;;;;;;4997722;28;20065;-58
2023/09/21 04:23:12;;;;;;;20.75;7.95;;;;;;;;;;4984039;28;20149;-58
2023/09/21 04:26:06;;;;;;;15.75;7.60;;;;;;;;;;4999342;28;20666;-58
2023/09/21 04:28:53;;;;;;;20.52;8.52;;;;;;;;;;4997155;28;20078;-52
2023/09/21 04:31:47;;;;;;;14.88;7.40;;;;;;;;;;4999312;28;21680;-54
2023/09/21 04:34:34;;;;;;;18.33;8.27;;;;;;;;;;4992405;28;20676;-49
2023/09/21 04:37:38;;;;;;;20.52;7.55;;;;;;;;;;4994700;28;20174;-52
2023/09/21 04:40:26;;;;;;;14.43;7.47;;;;;;;;;;4996730;28;20065;-52
2023/09/21 04:43:18;;;;;;;23.92;7.97;;;;;;;;;;4992950;28;20461;-50
2023/09/21 04:46:05;;;;;;;23.23;8.07;;;;;;;;;;4996958;28;20105;-60
2023/09/21 04:48:59;;;;;;;22.55;7.63;;;;;;;;;;4997754;28;20082;-61
2023/09/21 04:51:46;;;;;;;17.33;8.38;;;;;;;;;;5002639;28;20633;-61
2023/09/21 04:54:40;;;;;;;24.08;8.23;;;;;;;;;;4987485;28;20058;-61
2023/09/21 04:57:27;;;;;;;17.40;7.47;;;;;;;;;;4998687;28;20475;-61
2023/09/21 05:00:21;;;;;;;18.33;7.53;;;;;;;;;;5002009;28;20069;-61
2023/09/21 05:03:10;;;;;;;15.40;7.72;;;;;;;;;;5001981;28;20062;-49
2023/09/21 05:06:02;;;;;;;20.55;7.90;;;;;;;;;;5000784;28;20175;-64
2023/09/21 05:08:49;;;;;;;18.90;7.68;;;;;;;;;;5005455;28;20501;-64
2023/09/21 05:11:43;;;;;;;21.00;8.27;;;;;;;;;;5004741;28;20054;-65
2023/09/21 05:14:30;;;;;;;17.92;7.90;;;;;;;;;;5002744;28;20061;-64
2023/09/21 05:17:25;;;;;;;21.70;8.73;;;;;;;;;;5002713;28;20058;-64
2023/09/21 05:20:21;;;;;;;15.25;7.55;;;;;;;;;;5002570;28;20050;-51
2023/09/21 05:23:09;;;;;;;17.77;8.13;;;;;;;;;;5001295;28;20064;-64
2023/09/21 05:26:03;;;;;;;17.55;7.20;;;;;;;;;;4998724;28;20509;-64
2023/09/21 05:28:57;;;;;;;13.45;7.35;;;;;;;;;;5004477;28;20568;-64
2023/09/21 05:31:51;;;;;;;19.52;7.25;;;;;;;;;;5003844;28;20111;-62
2023/09/21 05:34:39;;;;;;;21.67;7.57;;;;;;;;;;5005233;28;20046;-60
2023/09/21 05:37:39;;;;;;;12.82;7.28;;;;;;;;;;5004834;28;20058;-60
2023/09/21 05:40:33;;;;;;;18.52;7.45;;;;;;;;;;4985844;28;20141;-60
2023/09/21 05:43:26;;;;;;;17.02;7.10;;;;;;;;;;4988517;28;20057;-60
2023/09/21 05:46:13;;;;;;;18.38;6.82;;;;;;;;;;4986464;28;20490;-60
2023/09/21 05:49:09;;;;;;;16.23;7.80;;;;;;;;;;4992328;28;20089;-62
2023/09/21 05:52:00;;;;;;;13.43;7.28;;;;;;;;;;4989521;28;20061;-61
2023/09/21 05:54:52;;;;;;;15.82;6.82;;;;;;;;;;4985538;28;20064;-61
2023/09/21 05:57:39;;;;;;;14.07;6.53;;;;;;;;;;4986644;28;20058;-61
2023/09/21 06:00:33;;;;;;;12.32;6.22;;;;;;;;;;4980399;28;20118;-62
2023/09/21 06:03:21;;;;;;;16.02;6.43;;;;;;;;;;4983908;28;20054;-49
2023/09/21 06:06:14;;;;;;;11.88;5.88;;;;;;;;;;4989866;28;20149;-53
2023/09/21 06:09:10;;;;;;;14.05;5.80;;;;;;;;;;4992118;28;20506;-49
2023/09/21 06:11:55;;;;;;;9.18;4.97;;;;;;;;;;4988407;28;20064;-50
2023/09/21 06:14:50;;;;;;;11.35;5.32;;;;;;;;;;4989973;28;20422;-50
2023/09/21 06:17:36;;;;;;;12.27;4.95;;;;;;;;;;4986864;28;20077;-60
2023/09/21 06:20:30;;;;;;;13.48;5.47;;;;;;;;;;4989864;28;20061;-60
2023/09/21 06:23:18;;;;;;;10.48;4.53;;;;;;;;;;4986477;28;20050;-60
2023/09/21 06:26:14;;;;;;;8.27;5.18;;;;;;;;;;4985801;28;20050;-60
2023/09/21 06:29:08;;;;;;;11.55;4.55;;;;;;;;;;4990420;28;20050;-61
2023/09/21 06:32:07;;;;;;;14.23;5.20;;;;;;;;;;4986300;28;21030;-57
2023/09/21 06:34:56;;;;;;;9.05;4.78;;;;;;;;;;4994137;28;20050;-58
2023/09/21 06:37:43;;;;;;;14.10;4.43;;;;;;;;;;4994595;28;20130;-58
2023/09/21 06:40:44;;;;;;;17.27;5.25;;;;;;;;;;5007470;28;20060;-58
2023/09/21 06:43:33;;;;;;;9.98;4.45;;;;;;;;;;5007958;28;20191;-58
2023/09/21 06:46:12;;;;;;;9.27;4.22;;;;;;;;;;5008852;28;20053;-61
2023/09/21 06:48:41;;;;;;;11.80;4.50;;;;;;;;;;5006882;28;20050;-60
2023/09/21 06:51:15;;;;;;;9.27;5.10;;;;;;;;;;5010424;28;20050;-60
2023/09/21 06:53:43;;;;;;;8.88;3.85;;;;;;;;;;4999413;28;20144;-60
2023/09/21 06:56:37;;;;;;;11.93;4.40;;;;;;;;;;5009438;28;20049;-63
2023/09/21 06:59:24;;;;;;;11.93;4.30;;;;;;;;;;5009274;28;20233;-60
2023/09/21 07:02:18;;;;;;;12.88;4.30;;;;;;;;;;5006363;28;20335;-60
2023/09/21 07:05:06;;;;;;;10.38;4.05;;;;;;;;;;5012330;28;20256;-61
2023/09/21 07:07:59;;;;;;;8.20;4.03;;;;;;;;;;5004617;28;20050;-60
2023/09/21 07:10:53;;;;;;;8.57;4.07;;;;;;;;;;5007165;28;20054;-61
2023/09/21 07:13:47;;;;;;;9.10;3.85;;;;;;;;;;5004842;28;20131;-60
2023/09/21 07:16:35;;;;;;;7.03;3.97;;;;;;;;;;5009197;28;20062;-60
2023/09/21 07:19:29;;;;;;;12.90;3.88;;;;;;;;;;5010837;28;20058;-61
2023/09/21 07:22:16;;;;;;;8.18;3.80;;;;;;;;;;5008262;28;20501;-60
2023/09/21 07:25:10;;;;;;;7.40;4.13;;;;;;;;;;5009287;28;20049;-62
2023/09/21 07:27:57;;;;;;;9.52;3.75;;;;;;;;;;5009318;28;20049;-63
2023/09/21 07:30:52;;;;;;;9.48;3.45;;;;;;;;;;5009043;28;20050;-63
2023/09/21 07:33:45;;;;;;;5.90;3.22;;;;;;;;;;5010936;28;20477;-63
2023/09/21 07:36:38;;;;;;;9.60;3.30;;;;;;;;;;5007706;28;20240;-62
2023/09/21 07:39:36;;;;;;;7.22;3.58;;;;;;;;;;5005546;28;20058;-63
2023/09/21 07:42:23;;;;;;;5.82;3.63;;;;;;;;;;5001867;28;20085;-62
2023/09/21 07:45:18;;;;;;;11.02;3.78;;;;;;;;;;5008429;28;20124;-51
2023/09/21 07:48:05;;;;;;;6.80;3.05;;;;;;;;;;5008935;28;20054;-53
2023/09/21 07:51:04;;;;;;;10.68;3.17;;;;;;;;;;5009458;28;20054;-52
2023/09/21 07:53:51;;;;;;;5.18;3.35;;;;;;;;;;5006800;28;20050;-53
2023/09/21 07:56:46;;;;;;;4.50;3.00;;;;;;;;;;5005408;28;20152;-53
2023/09/21 07:59:32;;;;;;;6.65;3.20;;;;;;;;;;4999875;28;20085;-52
2023/09/21 08:02:27;;;;;;;5.15;2.90;;;;;;;;;;5001303;28;20479;-49
2023/09/21 08:05:20;;;;;;;6.97;2.90;;;;;;;;;;5007109;28;20053;-49
2023/09/21 08:08:07;;;;;;;8.85;3.25;;;;;;;;;;5005133;28;20061;-54
2023/09/21 08:11:01;;;;;;;7.80;3.15;;;;;;;;;;5009573;28;20103;-52
2023/09/21 08:13:49;;;;;;;8.55;3.35;;;;;;;;;;5009126;28;20111;-62
2023/09/21 08:16:42;;;;;;;9.20;3.08;;;;;;;;;;5011026;28;20058;-61
2023/09/21 08:19:30;;;;;;;6.55;3.40;;;;;;;;;;5009640;28;20072;-61
2023/09/21 08:22:26;;;;;;;6.50;3.25;;;;;;;;;;5007547;28;20391;-58
2023/09/21 08:25:18;;;;;;;11.25;2.97;;;;;;;;;;5004503;28;20056;-52
2023/09/21 08:28:05;;;;;;;6.20;2.85;;;;;;;;;;5003607;28;20053;-52
2023/09/21 08:30:59;;;;;;;3.90;2.85;;;;;;;;;;5004826;28;20112;-53
2023/09/21 08:33:46;;;;;;;6.80;2.90;;;;;;;;;;5008657;28;20054;-48
2023/09/21 08:36:40;;;;;;;5.25;2.97;;;;;;;;;;5005801;28;20061;-52
2023/09/21 08:39:34;;;;;;;5.35;2.63;;;;;;;;;;4994561;28;20466;-52
2023/09/21 08:42:28;;;;;;;8.13;3.20;;;;;;;;;;4990014;28;20129;-65
2023/09/21 08:45:25;;;;;;;9.00;2.88;;;;;;;;;;4986537;28;20494;-66
2023/09/21 08:48:15;;;;;;;5.95;2.75;;;;;;;;;;4989514;28;20152;-64
2023/09/21 08:51:09;;;;;;;8.40;2.90;;;;;;;;;;4989512;28;20059;-59
2023/09/21 08:53:59;;;;;;;7.13;3.05;;;;;;;;;;4988799;28;20054;-53
2023/09/21 08:56:55;;;;;;;6.57;2.75;;;;;;;;;;4988331;28;20440;-53
2023/09/21 08:59:41;;;;;;;4.95;2.92;;;;;;;;;;4987674;28;20235;-54
2023/09/21 09:02:35;;;;;;;5.88;2.92;;;;;;;;;;4990648;28;20144;-48
2023/09/21 09:05:23;;;;;;;5.63;2.92;;;;;;;;;;4990736;28;20050;-53
2023/09/21 09:08:17;;;;;;;8.60;3.42;;;;;;;;;;4988688;28;20509;-61
2023/09/21 09:11:05;;;;;;;6.53;2.78;;;;;;;;;;4988478;28;20146;-61
2023/09/21 09:14:00;;;;;;;6.35;2.70;;;;;;;;;;4986586;28;20573;-60
2023/09/21 09:16:53;;;;;;;7.63;2.72;;;;;;;;;;4988767;28;20438;-61
2023/09/21 09:19:47;;;;;;;5.68;2.85;;;;;;;;;;4987663;28;20046;-57
2023/09/21 09:22:41;;;;;;;7.53;3.13;;;;;;;;;;4988588;28;20777;-59
2023/09/21 09:25:36;;;;;;;5.80;2.85;;;;;;;;;;4984689;28;20109;-59
2023/09/21 09:28:23;;;;;;;7.30;2.83;;;;;;;;;;4989763;28;20108;-58
2023/09/21 09:31:18;;;;;;;8.90;3.30;;;;;;;;;;4988435;28;20426;-58
2023/09/21 09:34:18;;;;;;;6.43;2.85;;;;;;;;;;4976648;28;20463;-58
2023/09/21 09:37:15;;;;;;;4.30;2.42;;;;;;;;;;4987251;28;20069;-67
2023/09/21 09:40:10;;;;;;;11.13;2.55;;;;;;;;;;5003504;28;20084;-66
2023/09/21 09:43:07;;;;;;;6.45;2.90;;;;;;;;;;5003973;28;20049;-66
2023/09/21 09:45:55;;;;;;;10.13;2.95;;;;;;;;;;5006443;28;20069;-65
2023/09/21 09:48:32;;;;;;;6.55;2.67;;;;;;;;;;5003689;28;20094;-60
2023/09/21 09:51:03;;;;;;;4.40;2.35;;;;;;;;;;5006752;28;20136;-60
2023/09/21 09:53:57;;;;;;;8.30;2.92;;;;;;;;;;5005446;28;20565;-60
2023/09/21 09:56:45;;;;;;;8.57;2.75;;;;;;;;;;5002609;28;20060;-60
2023/09/21 09:59:39;;;;;;;5.10;2.40;;;;;;;;;;5007906;28;20054;-60
2023/09/21 10:02:27;;;;;;;6.63;3.13;;;;;;;;;;4988680;28;20046;-60
2023/09/21 10:05:23;;;;;;;7.95;2.80;;;;;;;;;;5002156;28;20097;-57
2023/09/21 10:08:18;;;;;;;4.57;2.63;;;;;;;;;;5005141;28;20461;-57
2023/09/21 10:11:05;;;;;;;6.03;2.70;;;;;;;;;;5006754;28;20115;-57
2023/09/21 10:14:00;;;;;;;4.57;2.60;;;;;;;;;;5006897;28;20054;-57
2023/09/21 10:16:54;;;;;;;4.05;2.50;;;;;;;;;;5004537;28;20054;-60
2023/09/21 10:19:47;;;;;;;8.25;2.60;;;;;;;;;;5007051;28;20057;-60
2023/09/21 10:22:36;;;;;;;6.30;2.90;;;;;;;;;;5005633;28;20054;-60
2023/09/21 10:25:41;;;;;;;4.75;2.60;;;;;;;;;;5004078;28;20050;-60
2023/09/21 10:28:27;;;;;;;9.88;2.70;;;;;;;;;;5007309;28;20108;-60
2023/09/21 10:31:27;;;;;;;7.63;2.60;;;;;;;;;;4995794;28;20048;-61
2023/09/21 10:34:18;;;;;;;6.60;2.28;;;;;;;;;;5004771;28;20141;-60
2023/09/21 10:37:13;;;;;;;7.00;2.63;;;;;;;;;;5005970;28;20124;-60
2023/09/21 10:40:08;;;;;;;4.55;2.85;;;;;;;;;;4990303;28;20062;-60
2023/09/21 10:43:19;;;;;;;5.20;2.50;;;;;;;;;;5001697;28;20058;-59
2023/09/21 10:46:23;;;;;;;6.22;3.17;;;;;;;;;;5004747;28;20391;-61
2023/09/21 10:49:16;;;;;;;;;;;;;;;;;;5007308;28;20064;-65
2023/09/21 10:52:03;;;;;;;9.32;3.05;;;;;;;;;;4991144;28;19925;-65
2023/09/21 10:54:52;;;;;;;5.55;2.50;;;;;;;;;;5005661;28;20053;-63
2023/09/21 10:57:40;;;;;;;5.90;2.42;;;;;;;;;;4998202;28;20112;-64
2023/09/21 11:00:34;;;;;;;8.00;2.60;;;;;;;;;;5005743;28;20485;-64
2023/09/21 11:03:22;;;;;;;7.38;2.50;;;;;;;;;;5003181;28;20053;-64
2023/09/21 11:06:19;;;;;;;8.98;2.65;;;;;;;;;;5006505;28;20053;-64
2023/09/21 11:09:14;;;;;;;9.07;2.95;;;;;;;;;;5004354;28;20049;-64
2023/09/21 11:12:01;;;;;;;9.38;2.22;;;;;;;;;;5003018;28;20061;-64
2023/09/21 11:14:55;;;;;;;5.45;2.30;;;;;;;;;;5005910;28;20045;-64
2023/09/21 11:17:46;;;;;;;6.65;2.58;;;;;;;;;;5005987;28;20072;-61
2023/09/21 11:20:41;;;;;;;4.63;2.55;;;;;;;;;;5005138;28;20382;-62
2023/09/21 11:23:27;;;;;;;4.82;2.58;;;;;;;;;;5011245;28;20050;-61
2023/09/21 11:26:22;;;;;;;6.40;2.78;;;;;;;;;;5008383;28;20052;-61
2023/09/21 11:29:10;;;;;;;4.80;2.53;;;;;;;;;;5006313;28;20923;-61
2023/09/21 11:32:05;;;;;;;6.07;3.22;;;;;;;;;;5007337;28;20054;-60
2023/09/21 11:34:58;;;;;;;6.15;2.45;;;;;;;;;;5005179;28;20474;-60
2023/09/21 14:16:34;;;;;;;4.00;2.53;;;;;;;;;;4982646;28;20057;-49
2023/09/21 14:19:08;;;;;;;7.25;2.50;;;;;;;;;;4984331;28;20616;-49
2023/09/21 14:21:55;;;;;;;7.18;2.28;;;;;;;;;;4982762;28;20050;-50
2023/09/21 14:24:56;;;;;;;6.18;3.00;;;;;;;;;;4985536;28;20054;-46
2023/09/21 14:27:43;;;;;;;4.95;2.15;;;;;;;;;;4979933;28;20049;-48
2023/09/21 14:30:37;;;;;;;4.70;2.53;;;;;;;;;;4970899;28;20085;-50
2023/09/21 14:33:08;;;;;;;4.00;2.30;;;;;;;;;;4980729;28;20568;-57
2023/09/21 14:35:42;;;;;;;8.00;2.67;;;;;;;;;;4978919;28;20082;-60
2023/09/21 14:38:09;;;;;;;7.72;2.40;;;;;;;;;;4978044;28;20545;-60
2023/09/21 14:40:37;;;;;;;;;;;;;;;;;;4976688;28;20137;-60
2023/09/21 14:43:11;;;;;;;8.00;2.80;;;;;;;;;;4982585;28;19937;-59
2023/09/21 14:45:38;;;;;;;;;;;;;;;;;;4978929;28;20061;-60
2023/09/21 14:48:12;;;;;;;5.05;2.47;;;;;;;;;;4975951;28;19937;-60
2023/09/21 14:50:59;;;;;;;3.75;2.42;;;;;;;;;;4984890;28;20068;-51
2023/09/21 14:53:54;;;;;;;5.88;2.53;;;;;;;;;;4988793;28;20109;-50
2023/09/21 14:56:47;;;;;;;8.52;2.72;;;;;;;;;;4990219;28;20513;-51
2023/09/21 14:59:42;;;;;;;4.72;2.65;;;;;;;;;;4992821;28;20054;-50
2023/09/21 15:02:31;;;;;;;4.82;2.63;;;;;;;;;;4987676;28;20469;-50
2023/09/21 15:05:23;;;;;;;3.75;2.42;;;;;;;;;;4991752;28;20085;-49
2023/09/21 15:08:10;;;;;;;6.18;2.85;;;;;;;;;;4988569;28;20062;-59
2023/09/21 15:11:05;;;;;;;9.43;3.05;;;;;;;;;;4987564;28;20403;-59
2023/09/21 15:13:52;;;;;;;5.20;2.55;;;;;;;;;;4989231;28;20046;-59
2023/09/21 15:16:52;;;;;;;6.35;3.05;;;;;;;;;;4986995;28;20072;-58
2023/09/21 15:19:40;;;;;;;4.85;2.50;;;;;;;;;;4984983;28;20494;-57
2023/09/21 15:22:17;;;;;;;4.65;2.78;;;;;;;;;;4990653;28;20057;-60
2023/09/21 15:24:44;;;;;;;4.60;2.70;;;;;;;;;;4986336;28;20058;-59
2023/09/21 15:27:38;;;;;;;4.82;2.50;;;;;;;;;;4988191;28;20866;-59
2023/09/21 15:30:25;;;;;;;4.05;2.13;;;;;;;;;;4989392;28;20078;-59
2023/09/21 15:33:19;;;;;;;4.93;2.70;;;;;;;;;;4987263;28;22272;-59
2023/09/21 15:36:07;;;;;;;3.42;2.20;;;;;;;;;;4987273;28;20117;-59
2023/09/21 15:39:00;;;;;;;7.13;3.17;;;;;;;;;;4989254;28;20513;-49
2023/09/21 15:41:55;;;;;;;4.50;2.70;;;;;;;;;;4981257;28;20065;-51
2023/09/21 15:44:42;;;;;;;5.00;2.97;;;;;;;;;;4982504;28;20064;-50
2023/09/21 15:47:35;;;;;;;6.20;2.60;;;;;;;;;;4983742;28;20058;-51
2023/09/21 15:50:31;;;;;;;5.20;2.65;;;;;;;;;;4985270;28;20775;-50
2023/09/21 15:53:17;;;;;;;5.80;2.85;;;;;;;;;;4984434;28;20058;-47
2023/09/21 15:56:10;;;;;;;10.10;2.85;;;;;;;;;;4984704;28;20054;-50
2023/09/21 15:58:54;;;;;;;6.22;2.63;;;;;;;;;;4983025;28;20058;-56
2023/09/21 16:01:29;;;;;;;4.78;2.80;;;;;;;;;;4982403;28;20968;-55
2023/09/21 16:04:17;;;;;;;5.55;2.70;;;;;;;;;;4979601;28;20052;-56
2023/09/21 16:07:10;;;;;;;4.90;2.58;;;;;;;;;;4981018;28;20535;-56
2023/09/21 16:09:59;;;;;;;4.72;2.72;;;;;;;;;;4983349;28;20077;-56
2023/09/21 16:12:51;;;;;;;7.60;2.50;;;;;;;;;;4984015;28;20113;-57
2023/09/21 16:15:25;;;;;;;5.30;2.67;;;;;;;;;;4983910;28;20517;-57
2023/09/21 16:18:07;;;;;;;4.93;2.63;;;;;;;;;;4963215;28;20058;-58
2023/09/21 16:20:35;;;;;;;7.20;2.90;;;;;;;;;;4983096;28;20146;-58
2023/09/21 16:23:29;;;;;;;9.30;2.80;;;;;;;;;;4973198;28;20149;-58
2023/09/21 16:26:24;;;;;;;4.40;2.13;;;;;;;;;;4980623;28;20066;-58
2023/09/21 16:29:11;;;;;;;4.90;2.60;;;;;;;;;;4974243;28;20120;-58
2023/09/21 16:32:04;;;;;;;6.28;2.60;;;;;;;;;;4983191;28;20057;-61
2023/09/21 16:34:52;;;;;;;4.07;2.38;;;;;;;;;;4983461;28;20532;-58
2023/09/21 16:37:45;;;;;;;6.20;2.67;;;;;;;;;;4983791;28;20061;-59
2023/09/21 16:40:37;;;;;;;5.65;2.83;;;;;;;;;;4983450;28;20137;-59
2023/09/21 16:43:30;;;;;;;5.25;2.60;;;;;;;;;;4979214;28;20513;-59
2023/09/21 16:46:17;;;;;;;5.68;2.60;;;;;;;;;;4968073;28;20202;-59
2023/09/21 16:49:13;;;;;;;5.22;2.42;;;;;;;;;;4979132;28;20053;-59
2023/09/21 16:52:01;;;;;;;6.05;2.65;;;;;;;;;;4984270;28;20141;-60
2023/09/21 16:54:52;;;;;;;7.53;2.72;;;;;;;;;;4972497;28;20065;-59
2023/09/21 16:57:40;;;;;;;4.07;2.60;;;;;;;;;;4983877;28;21014;-60
2023/09/21 17:00:34;;;;;;;5.28;2.33;;;;;;;;;;4979714;28;20788;-59
2023/09/21 17:03:21;;;;;;;3.78;2.70;;;;;;;;;;4981909;28;20309;-59
2023/09/21 17:06:15;;;;;;;5.50;2.60;;;;;;;;;;4984162;28;20064;-59
2023/09/21 17:09:09;;;;;;;5.63;2.78;;;;;;;;;;4982805;28;20054;-58
2023/09/21 17:12:04;;;;;;;7.15;2.92;;;;;;;;;;4975149;28;20054;-59
2023/09/21 17:14:52;;;;;;;6.93;3.08;;;;;;;;;;4981590;28;20095;-60
2023/09/21 17:17:51;;;;;;;7.50;2.75;;;;;;;;;;4985604;28;20504;-59
2023/09/21 17:20:38;;;;;;;2.67;2.20;;;;;;;;;;4984301;28;20392;-60
2023/09/21 17:23:32;;;;;;;9.60;3.15;;;;;;;;;;4982262;28;20153;-59
2023/09/21 17:26:20;;;;;;;7.55;2.75;;;;;;;;;;4977386;28;20102;-60
2023/09/21 17:29:13;;;;;;;5.93;2.78;;;;;;;;;;4982548;28;20058;-58
2023/09/21 17:32:00;;;;;;;8.52;2.72;;;;;;;;;;4984838;28;20116;-58
2023/09/21 17:34:56;;;;;;;7.55;2.75;;;;;;;;;;4975266;28;20073;-58
2023/09/21 17:37:41;;;;;;;4.57;2.75;;;;;;;;;;4969093;28;20408;-59
2023/09/21 17:40:36;;;;;;;4.60;2.20;;;;;;;;;;4982441;28;20447;-58
2023/09/21 17:43:24;;;;;;;8.05;2.95;;;;;;;;;;4983594;28;20050;-58
2023/09/21 17:46:17;;;;;;;6.70;2.67;;;;;;;;;;4984385;28;20054;-61
2023/09/21 17:49:05;;;;;;;13.32;3.15;;;;;;;;;;4975258;28;20054;-61
2023/09/21 17:52:01;;;;;;;6.30;3.03;;;;;;;;;;4985270;28;20063;-61
2023/09/21 17:54:46;;;;;;;9.00;2.95;;;;;;;;;;4983779;28;20104;-62
2023/09/21 17:57:39;;;;;;;7.00;2.90;;;;;;;;;;4971938;28;20058;-61
2023/09/21 18:00:26;;;;;;;6.25;2.83;;;;;;;;;;4980597;28;20116;-61
2023/09/21 18:03:21;;;;;;;7.80;2.75;;;;;;;;;;4981461;28;20532;-61
2023/09/21 18:05:48;;;;;;;5.25;2.88;;;;;;;;;;4979208;28;20056;-62
2023/09/21 18:08:42;;;;;;;4.85;2.63;;;;;;;;;;4973653;28;20876;-59
2023/09/21 18:11:29;;;;;;;9.70;2.97;;;;;;;;;;4977849;28;20477;-59
2023/09/21 18:14:23;;;;;;;6.70;2.85;;;;;;;;;;4965343;28;20764;-59
2023/09/21 18:17:17;;;;;;;4.13;2.58;;;;;;;;;;4978376;28;20056;-59
2023/09/21 18:20:10;;;;;;;9.50;3.10;;;;;;;;;;4977364;28;20058;-59
2023/09/21 18:22:58;;;;;;;6.80;2.70;;;;;;;;;;4977295;28;20165;-53
2023/09/21 18:25:51;;;;;;;6.03;3.20;;;;;;;;;;4972485;28;20046;-54
2023/09/21 18:28:38;;;;;;;7.15;3.00;;;;;;;;;;4976019;28;20714;-56
2023/09/21 18:31:32;;;;;;;6.38;3.22;;;;;;;;;;4981078;28;20196;-53
2023/09/21 18:34:19;;;;;;;5.25;3.00;;;;;;;;;;4979819;28;20050;-53
2023/09/21 18:37:13;;;;;;;5.57;3.22;;;;;;;;;;4974739;28;20474;-52
2023/09/21 18:40:01;;;;;;;5.57;3.00;;;;;;;;;;4976333;28;20062;-52
2023/09/21 18:42:54;;;;;;;7.40;3.03;;;;;;;;;;4980278;28;20053;-58
2023/09/21 18:45:48;;;;;;;5.65;3.20;;;;;;;;;;4981861;28;20129;-61
2023/09/21 18:48:42;;;;;;;4.90;3.05;;;;;;;;;;4964832;28;20054;-61
2023/09/21 18:51:30;;;;;;;5.40;2.95;;;;;;;;;;4980690;28;21604;-61
2023/09/21 18:54:23;;;;;;;5.18;3.05;;;;;;;;;;4976524;28;20053;-61
2023/09/21 18:57:10;;;;;;;6.78;3.00;;;;;;;;;;4976765;28;20054;-61
2023/09/21 19:00:05;;;;;;;11.98;3.22;;;;;;;;;;4978539;28;20061;-50
2023/09/21 19:02:53;;;;;;;10.07;3.22;;;;;;;;;;4976183;28;20054;-49
2023/09/21 19:05:47;;;;;;;7.70;2.70;;;;;;;;;;4978216;28;20752;-48
2023/09/21 19:08:34;;;;;;;5.80;2.90;;;;;;;;;;4977173;28;20056;-49
2023/09/21 19:11:28;;;;;;;6.18;2.90;;;;;;;;;;4976861;28;20157;-47
2023/09/21 19:14:16;;;;;;;6.40;2.83;;;;;;;;;;4979146;28;20082;-51
2023/09/21 19:17:16;;;;;;;6.00;2.50;;;;;;;;;;4972633;28;20057;-51
2023/09/21 19:20:03;;;;;;;3.55;2.88;;;;;;;;;;4980646;28;20135;-54
2023/09/21 19:22:58;;;;;;;6.15;2.70;;;;;;;;;;4975124;28;20419;-56
2023/09/21 19:25:46;;;;;;;6.57;2.90;;;;;;;;;;4983820;28;20220;-56
2023/09/21 19:28:39;;;;;;;6.40;3.03;;;;;;;;;;4977174;28;20082;-55
2023/09/21 19:31:26;;;;;;;7.53;3.25;;;;;;;;;;4980317;28;20066;-56